createdAt,value
2018-06-02T00:01:22.262Z,24.23
2018-06-02T00:03:51.247Z,26.07
2018-06-02T00:06:20.219Z,25.43
2018-06-02T00:08:49.185Z,24.80
2018-06-02T00:11:18.213Z,24.53
2018-06-02T00:13:47.224Z,24.10
2018-06-02T00:16:16.182Z,22.37
2018-06-02T00:18:45.147Z,23.27
2018-06-02T00:21:14.109Z,24.03
2018-06-02T00:23:43.066Z,23.73
2018-06-02T00:26:12.074Z,24.90
2018-06-02T00:28:41.032Z,24.67
2018-06-02T00:31:10.006Z,23.47
2018-06-02T00:33:38.975Z,24.70
2018-06-02T00:36:07.939Z,24.83
2018-06-02T00:38:36.895Z,23.03
2018-06-02T00:41:05.846Z,24.37
2018-06-02T00:43:34.867Z,23.37
2018-06-02T00:46:03.833Z,26.20
2018-06-02T00:48:32.808Z,26.27
2018-06-02T00:51:01.771Z,25.43
2018-06-02T00:53:30.723Z,26.10
2018-06-02T00:55:59.721Z,27.20
2018-06-02T00:58:28.674Z,25.33
2018-06-02T01:00:57.672Z,27.10
2018-06-02T01:03:26.633Z,24.50
2018-06-02T01:05:55.593Z,25.30
2018-06-02T01:08:24.550Z,23.47
2018-06-02T01:10:53.520Z,24.43
2018-06-02T01:13:22.536Z,25.93
2018-06-02T01:15:51.496Z,28.50
2018-06-02T01:18:20.462Z,27.67
2018-06-02T01:20:49.438Z,30.47
2018-06-02T01:23:18.437Z,30.43
2018-06-02T01:25:47.447Z,31.37
2018-06-02T01:28:16.418Z,32.90
2018-06-02T01:30:45.414Z,30.90
2018-06-02T01:33:14.379Z,32.30
2018-06-02T01:35:43.338Z,34.20
2018-06-02T01:38:12.318Z,35.33
2018-06-02T01:40:41.269Z,36.37
2018-06-02T01:43:10.232Z,37.97
2018-06-02T01:45:39.204Z,37.50
2018-06-02T01:48:08.156Z,38.73
2018-06-02T01:50:37.151Z,40.23
2018-06-02T01:53:06.124Z,38.73
2018-06-02T01:55:35.077Z,39.23
2018-06-02T01:58:04.051Z,38.33
2018-06-02T02:00:33.023Z,35.10
2018-06-02T02:03:02.023Z,36.50
2018-06-02T02:05:31.006Z,36.87
2018-06-02T02:07:59.963Z,37.57
2018-06-02T02:10:28.920Z,36.30
2018-06-02T02:12:57.873Z,36.47
2018-06-02T02:15:26.878Z,37.33
2018-06-02T02:17:55.829Z,37.53
2018-06-02T02:20:24.787Z,38.27
2018-06-02T02:22:53.733Z,40.30
2018-06-02T02:25:22.702Z,40.63
2018-06-02T02:27:51.710Z,44.23
2018-06-02T02:30:20.672Z,44.93
2018-06-02T02:32:49.642Z,39.10
2018-06-02T02:35:18.597Z,42.17
2018-06-02T02:37:47.560Z,40.27
2018-06-02T02:40:16.579Z,41.93
2018-06-02T02:42:45.543Z,38.77
2018-06-02T02:45:14.515Z,36.50
2018-06-02T02:47:43.469Z,34.63
2018-06-02T02:50:12.427Z,36.20
2018-06-02T02:52:41.431Z,35.37
2018-06-02T02:55:10.399Z,37.83
2018-06-02T02:57:39.364Z,38.37
2018-06-02T03:00:08.337Z,38.73
2018-06-02T03:02:37.303Z,39.03
2018-06-02T03:05:06.314Z,39.07
2018-06-02T03:07:35.296Z,39.53
2018-06-02T03:10:04.260Z,41.30
2018-06-02T03:12:33.242Z,43.80
2018-06-02T03:15:02.235Z,40.97
2018-06-02T03:17:31.251Z,42.37
2018-06-02T03:20:00.270Z,41.10
2018-06-02T03:22:29.208Z,41.17
2018-06-02T03:24:58.174Z,37.77
2018-06-02T03:27:27.134Z,35.47
2018-06-02T03:29:56.148Z,32.77
2018-06-02T03:32:25.117Z,34.53
2018-06-02T03:34:54.083Z,34.80
2018-06-02T03:37:23.105Z,35.53
2018-06-02T03:39:52.085Z,34.27
2018-06-02T03:42:21.061Z,29.63
2018-06-02T03:44:50.023Z,28.70
2018-06-02T03:47:18.997Z,28.63
2018-06-02T03:49:48.003Z,32.73
2018-06-02T03:52:16.953Z,32.33
2018-06-02T03:54:45.902Z,34.20
2018-06-02T03:57:14.871Z,35.70
2018-06-02T03:59:43.843Z,38.23
2018-06-02T04:02:12.817Z,36.70
2018-06-02T04:04:41.790Z,39.50
2018-06-02T04:07:10.773Z,40.00
2018-06-02T04:09:39.730Z,43.53
2018-06-02T04:12:08.739Z,39.07
2018-06-02T04:14:37.692Z,33.00
2018-06-02T04:17:06.680Z,37.07
2018-06-02T04:19:35.650Z,39.47
2018-06-02T04:22:04.615Z,42.27
2018-06-02T04:24:33.613Z,42.40
2018-06-02T04:27:02.588Z,45.90
2018-06-02T04:29:31.557Z,47.00
2018-06-02T04:32:00.531Z,46.53
2018-06-02T04:34:29.482Z,44.30
2018-06-02T04:36:58.485Z,46.90
2018-06-02T04:39:27.451Z,49.37
2018-06-02T04:41:56.423Z,46.87
2018-06-02T04:44:25.398Z,45.80
2018-06-02T04:46:54.360Z,44.90
2018-06-02T04:49:23.367Z,43.10
2018-06-02T04:51:52.342Z,42.40
2018-06-02T04:54:21.299Z,41.07
2018-06-02T04:56:50.323Z,41.03
2018-06-02T04:59:19.274Z,42.13
2018-06-02T05:01:48.277Z,42.97
2018-06-02T05:04:17.241Z,46.70
2018-06-02T05:06:46.222Z,48.30
2018-06-02T05:09:15.183Z,47.93
2018-06-02T05:11:44.149Z,44.80
2018-06-02T05:14:13.092Z,42.63
2018-06-02T05:16:42.050Z,37.23
2018-06-02T05:19:11.001Z,33.17
2018-06-02T05:21:39.960Z,30.03
2018-06-02T05:24:08.909Z,27.20
2018-06-02T05:26:37.853Z,27.80
2018-06-02T05:29:06.804Z,26.27
2018-06-02T05:31:35.741Z,25.67
2018-06-02T05:34:04.695Z,24.43
2018-06-02T05:36:33.642Z,23.93
2018-06-02T05:39:02.586Z,22.50
2018-06-02T05:41:31.545Z,19.90
2018-06-02T05:44:00.498Z,18.53
2018-06-02T05:46:29.468Z,18.07
2018-06-02T05:48:58.489Z,18.20
2018-06-02T05:51:27.437Z,17.60
2018-06-02T05:53:56.893Z,16.97
2018-06-02T05:56:25.837Z,16.60
2018-06-02T05:58:54.793Z,18.93
2018-06-02T06:01:23.742Z,16.67
2018-06-02T06:03:52.779Z,19.30
2018-06-02T06:06:21.725Z,20.30
2018-06-02T06:08:50.776Z,20.83
2018-06-02T06:11:19.765Z,20.43
2018-06-02T06:13:48.750Z,21.87
2018-06-02T06:16:17.697Z,21.57
2018-06-02T06:18:46.637Z,23.93
2018-06-02T06:21:15.582Z,20.67
2018-06-02T06:23:44.690Z,19.07
2018-06-02T06:26:13.742Z,20.40
2018-06-02T06:28:42.685Z,20.03
2018-06-02T06:31:11.650Z,21.50
2018-06-02T06:33:40.590Z,23.03
2018-06-02T06:36:09.539Z,24.70
2018-06-02T06:38:38.497Z,23.77
2018-06-02T06:41:07.446Z,23.17
2018-06-02T06:43:36.399Z,23.20
2018-06-02T06:46:05.391Z,22.37
2018-06-02T06:48:34.346Z,24.63
2018-06-02T06:51:03.308Z,23.20
2018-06-02T06:53:32.321Z,21.53
2018-06-02T06:56:01.265Z,21.70
2018-06-02T06:58:30.266Z,21.67
2018-06-02T07:00:59.226Z,18.90
2018-06-02T07:03:28.190Z,15.83
2018-06-02T07:05:57.139Z,15.40
2018-06-02T07:08:26.391Z,14.63
2018-06-02T07:10:55.339Z,14.13
2018-06-02T07:13:24.290Z,14.90
2018-06-02T07:15:53.379Z,13.53
2018-06-02T07:18:22.312Z,15.10
2018-06-02T07:20:51.253Z,14.10
2018-06-02T07:23:20.310Z,13.80
2018-06-02T07:25:49.262Z,13.03
2018-06-02T07:28:18.201Z,14.57
2018-06-02T07:30:47.162Z,13.03
2018-06-02T07:33:16.244Z,13.50
2018-06-02T07:35:45.256Z,13.00
2018-06-02T07:38:14.717Z,13.53
2018-06-02T07:40:43.670Z,13.27
2018-06-02T07:43:12.691Z,12.80
2018-06-02T07:45:42.151Z,13.07
2018-06-02T07:48:11.102Z,14.67
2018-06-02T07:50:40.051Z,15.60
2018-06-02T07:53:09.003Z,13.63
2018-06-02T07:55:37.951Z,13.90
2018-06-02T07:58:06.894Z,14.50
2018-06-02T08:00:35.861Z,14.97
2018-06-02T08:03:04.814Z,14.47
2018-06-02T08:05:33.763Z,15.17
2018-06-02T08:08:02.709Z,16.37
2018-06-02T08:10:31.724Z,14.73
2018-06-02T08:13:00.662Z,16.83
2018-06-02T08:18:05.090Z,16.87
2018-06-02T08:20:34.077Z,16.83
2018-06-02T08:23:03.013Z,16.03
2018-06-02T08:25:31.987Z,16.00
2018-06-02T08:28:00.926Z,17.63
2018-06-02T08:30:29.869Z,18.87
2018-06-02T08:32:58.812Z,16.77
2018-06-02T08:35:27.759Z,16.83
2018-06-02T08:37:56.746Z,17.43
2018-06-02T08:40:25.706Z,15.60
2018-06-02T08:42:54.660Z,17.47
2018-06-02T08:45:23.598Z,14.37
2018-06-02T08:47:52.550Z,13.47
2018-06-02T08:50:21.548Z,14.30
2018-06-02T08:52:50.522Z,14.03
2018-06-02T08:55:19.465Z,13.17
2018-06-02T08:57:48.415Z,13.10
2018-06-02T09:00:17.391Z,13.40
2018-06-02T09:02:46.374Z,14.00
2018-06-02T09:05:15.321Z,13.73
2018-06-02T09:07:44.277Z,12.23
2018-06-02T09:10:13.239Z,12.97
2018-06-02T09:12:42.192Z,13.57
2018-06-02T09:15:11.185Z,12.97
2018-06-02T09:17:40.129Z,13.60
2018-06-02T09:20:09.088Z,13.27
2018-06-02T09:22:38.056Z,17.33
2018-06-02T09:25:07.006Z,14.53
2018-06-02T09:27:36.112Z,13.77
2018-06-02T09:30:05.052Z,12.53
2018-06-02T09:32:34.734Z,14.27
2018-06-02T09:35:04.374Z,13.83
2018-06-02T09:37:33.394Z,13.63
2018-06-02T09:40:02.390Z,13.77
2018-06-02T09:42:31.339Z,13.33
2018-06-02T09:45:00.293Z,13.27
2018-06-02T09:47:29.296Z,12.87
2018-06-02T09:49:58.248Z,12.30
2018-06-02T09:52:27.191Z,10.93
2018-06-02T09:54:56.174Z,12.83
2018-06-02T09:57:25.124Z,11.23
2018-06-02T09:59:54.105Z,12.87
2018-06-02T10:02:23.059Z,11.63
2018-06-02T10:04:51.998Z,11.83
2018-06-02T10:07:20.943Z,16.03
2018-06-02T10:09:49.963Z,11.97
2018-06-02T10:12:19.036Z,11.33
2018-06-02T10:14:48.657Z,11.50
2018-06-02T10:17:17.606Z,13.03
2018-06-02T10:19:46.670Z,12.70
2018-06-02T10:22:15.612Z,13.07
2018-06-02T10:24:44.652Z,12.67
2018-06-02T10:27:13.617Z,11.87
2018-06-02T10:29:42.678Z,11.57
2018-06-02T10:32:11.627Z,11.03
2018-06-02T10:34:40.579Z,12.17
2018-06-02T10:37:09.535Z,12.77
2018-06-02T10:39:39.194Z,10.60
2018-06-02T10:42:08.437Z,11.00
2018-06-02T10:44:37.419Z,10.50
2018-06-02T10:47:06.361Z,12.03
2018-06-02T10:49:35.333Z,10.40
2018-06-02T10:52:04.325Z,13.33
2018-06-02T10:54:33.775Z,9.33
2018-06-02T10:57:02.713Z,9.10
2018-06-02T10:59:31.654Z,8.43
2018-06-02T11:02:00.629Z,8.80
2018-06-02T11:04:29.576Z,8.60
2018-06-02T11:06:58.842Z,6.67
2018-06-02T11:09:27.786Z,11.23
2018-06-02T11:11:56.721Z,8.75
2018-06-02T11:14:25.755Z,5.82
2018-06-02T11:16:54.722Z,6.85
2018-06-02T11:19:23.662Z,6.40
2018-06-02T11:21:52.713Z,6.12
2018-06-02T11:24:21.649Z,6.28
2018-06-02T11:26:51.014Z,6.72
2018-06-02T11:29:20.561Z,7.62
2018-06-02T11:31:49.545Z,6.18
2018-06-02T11:34:18.509Z,5.37
2018-06-02T11:36:47.515Z,6.28
2018-06-02T11:39:16.530Z,5.10
2018-06-02T11:41:45.471Z,9.00
2018-06-02T11:44:14.502Z,9.48
2018-06-02T11:46:43.585Z,5.18
2018-06-02T11:49:12.533Z,4.68
2018-06-02T11:51:41.478Z,4.90
2018-06-02T11:54:10.479Z,6.28
2018-06-02T11:56:39.486Z,5.40
2018-06-02T11:59:08.432Z,5.50
2018-06-02T12:01:37.468Z,5.87
2018-06-02T12:04:06.487Z,7.90
2018-06-02T12:06:35.962Z,4.60
2018-06-02T12:09:05.014Z,4.45
2018-06-02T12:11:33.991Z,5.10
2018-06-02T12:14:02.973Z,4.65
2018-06-02T12:16:31.906Z,6.45
2018-06-02T12:19:00.857Z,6.15
2018-06-02T12:21:29.818Z,4.15
2018-06-02T12:23:58.858Z,4.97
2018-06-02T12:26:27.848Z,3.95
2018-06-02T12:28:56.794Z,4.07
2018-06-02T12:31:25.760Z,5.20
2018-06-02T12:33:54.715Z,3.97
2018-06-02T12:36:23.668Z,5.40
2018-06-02T12:38:52.635Z,4.07
2018-06-02T12:41:21.572Z,3.97
2018-06-02T12:43:50.545Z,5.68
2018-06-02T12:46:19.498Z,6.80
2018-06-02T12:48:48.450Z,3.95
2018-06-02T12:51:17.396Z,3.78
2018-06-02T12:53:46.340Z,5.50
2018-06-02T12:56:15.324Z,5.00
2018-06-02T12:58:44.286Z,7.12
2018-06-02T13:01:13.218Z,5.27
2018-06-02T13:03:42.157Z,5.20
2018-06-02T13:06:11.111Z,6.80
2018-06-02T13:08:40.055Z,8.33
2018-06-02T13:11:09.050Z,8.20
2018-06-02T13:13:38.009Z,13.23
2018-06-02T13:16:06.956Z,14.63
2018-06-02T13:18:36.079Z,10.97
2018-06-02T13:21:05.154Z,13.13
2018-06-02T13:23:34.103Z,10.03
2018-06-02T13:26:03.049Z,17.30
2018-06-02T13:28:31.999Z,9.63
2018-06-02T13:31:01.000Z,10.30
2018-06-02T13:33:29.943Z,9.73
2018-06-02T13:35:58.879Z,9.10
2018-06-02T13:38:27.823Z,7.57
2018-06-02T13:40:56.784Z,6.10
2018-06-02T13:43:26.517Z,5.70
2018-06-02T13:45:55.458Z,8.17
2018-06-02T13:48:24.410Z,7.73
2018-06-02T13:50:53.372Z,9.30
2018-06-02T13:53:22.419Z,7.83
2018-06-02T13:55:51.388Z,7.60
2018-06-02T13:58:20.386Z,7.90
2018-06-02T14:00:49.394Z,6.37
2018-06-02T14:03:18.451Z,7.07
2018-06-02T14:05:47.596Z,6.63
2018-06-02T14:08:16.805Z,7.57
2018-06-02T14:10:45.748Z,9.47
2018-06-02T14:13:14.714Z,8.50
2018-06-02T14:15:43.798Z,7.77
2018-06-02T14:18:12.794Z,8.17
2018-06-02T14:20:41.754Z,8.90
2018-06-02T14:23:10.706Z,9.07
2018-06-02T14:25:39.700Z,10.97
2018-06-02T14:28:08.652Z,8.83
2018-06-02T14:30:37.654Z,9.67
2018-06-02T14:33:06.593Z,8.50
2018-06-02T14:35:35.551Z,9.23
2018-06-02T14:38:04.522Z,8.20
2018-06-02T14:40:33.481Z,7.87
2018-06-02T14:43:02.475Z,8.07
2018-06-02T14:45:31.426Z,6.77
2018-06-02T14:48:00.370Z,8.53
2018-06-02T14:50:29.313Z,7.63
2018-06-02T14:52:58.274Z,7.03
2018-06-02T14:55:27.397Z,6.77
2018-06-02T14:57:56.398Z,6.77
2018-06-02T15:00:25.339Z,6.83
2018-06-02T15:02:54.317Z,6.93
2018-06-02T15:05:23.263Z,6.50
2018-06-02T15:07:52.231Z,6.60
2018-06-02T15:10:21.210Z,6.20
2018-06-02T15:12:50.162Z,11.73
2018-06-02T15:15:19.110Z,7.10
2018-06-02T15:17:48.061Z,7.03
2018-06-02T15:20:17.010Z,7.43
2018-06-02T15:22:45.961Z,7.37
2018-06-02T15:25:14.890Z,6.27
2018-06-02T15:27:43.857Z,11.57
2018-06-02T15:30:12.815Z,6.73
2018-06-02T15:32:41.788Z,6.97
2018-06-02T15:35:10.738Z,7.27
2018-06-02T15:37:39.677Z,6.23
2018-06-02T15:40:08.649Z,5.20
2018-06-02T15:42:37.600Z,6.73
2018-06-02T15:45:06.623Z,7.83
2018-06-02T15:47:35.567Z,5.03
2018-06-02T15:50:04.550Z,5.37
2018-06-02T15:52:33.487Z,4.60
2018-06-02T15:55:02.734Z,6.37
2018-06-02T15:57:31.851Z,4.77
2018-06-02T16:00:00.828Z,6.40
2018-06-02T16:02:29.762Z,6.63
2018-06-02T16:04:58.904Z,4.47
2018-06-02T16:07:27.900Z,4.70
2018-06-02T16:09:56.833Z,5.63
2018-06-02T16:12:25.831Z,5.37
2018-06-02T16:14:54.886Z,5.73
2018-06-02T16:17:23.846Z,5.13
2018-06-02T16:19:53.602Z,5.47
2018-06-02T16:22:22.703Z,6.07
2018-06-02T16:24:51.639Z,5.03
2018-06-02T16:27:20.598Z,5.43
2018-06-02T16:29:49.546Z,5.30
2018-06-02T16:32:19.226Z,5.70
2018-06-02T16:34:48.307Z,6.57
2018-06-02T16:37:17.242Z,5.07
2018-06-02T16:39:46.193Z,4.70
2018-06-02T16:42:15.565Z,6.37
2018-06-02T16:44:44.622Z,5.23
2018-06-02T16:47:13.627Z,5.87
2018-06-02T16:49:43.126Z,8.00
2018-06-02T16:52:12.057Z,6.00
2018-06-02T16:54:41.064Z,9.33
2018-06-02T16:57:10.739Z,7.27
2018-06-02T16:59:39.826Z,6.73
2018-06-02T17:02:08.811Z,8.90
2018-06-02T17:04:37.919Z,7.63
2018-06-02T17:07:07.001Z,6.30
2018-06-02T17:09:35.962Z,5.67
2018-06-02T17:12:04.914Z,6.20
2018-06-02T17:14:33.885Z,8.23
2018-06-02T17:17:02.865Z,7.60
2018-06-02T17:19:31.939Z,6.67
2018-06-02T17:22:00.994Z,9.33
2018-06-02T17:24:30.194Z,9.30
2018-06-02T17:26:59.794Z,8.30
2018-06-02T17:29:28.791Z,9.10
2018-06-02T17:31:57.760Z,11.13
2018-06-02T17:34:26.753Z,7.50
2018-06-02T17:36:55.698Z,8.00
2018-06-02T17:39:25.482Z,7.23
2018-06-02T17:41:54.520Z,7.50
2018-06-02T17:44:23.466Z,7.37
2018-06-02T17:46:52.417Z,10.30
2018-06-02T17:49:21.411Z,7.60
2018-06-02T17:51:50.355Z,8.10
2018-06-02T17:54:19.345Z,8.07
2018-06-02T17:56:48.276Z,8.47
2018-06-02T17:59:17.632Z,8.93
2018-06-02T18:01:46.573Z,9.37
2018-06-02T18:04:15.555Z,11.63
2018-06-02T18:06:44.560Z,8.57
2018-06-02T18:09:45.301Z,7.77
2018-06-02T18:12:13.532Z,7.17
2018-06-02T18:14:41.763Z,8.23
2018-06-02T18:17:09.965Z,8.17
2018-06-02T18:19:38.177Z,8.13
2018-06-02T18:22:06.358Z,9.93
2018-06-02T18:24:34.577Z,8.13
2018-06-02T18:27:02.761Z,7.13
2018-06-02T18:29:30.943Z,8.30
2018-06-02T18:31:59.112Z,7.10
2018-06-02T18:34:27.278Z,9.90
2018-06-02T18:36:55.524Z,9.60
2018-06-02T18:39:23.747Z,18.37
2018-06-02T18:41:52.527Z,12.80
2018-06-02T18:44:20.745Z,14.03
2018-06-02T18:46:49.102Z,11.33
2018-06-02T18:49:17.552Z,10.27
2018-06-02T18:51:45.991Z,16.77
2018-06-02T18:54:14.197Z,10.93
2018-06-02T18:56:42.375Z,13.27
2018-06-02T18:59:10.638Z,20.70
2018-06-02T19:01:39.160Z,20.17
2018-06-02T19:04:07.403Z,42.60
2018-06-02T19:06:35.616Z,25.17
2018-06-02T19:09:04.932Z,20.90
2018-06-02T19:11:33.262Z,25.47
2018-06-02T19:14:01.891Z,16.20
2018-06-02T19:16:30.204Z,16.67
2018-06-02T19:18:58.394Z,15.77
2018-06-02T19:21:26.610Z,14.13
2018-06-02T19:23:54.861Z,11.87
2018-06-02T19:26:23.147Z,11.77
2018-06-02T19:28:51.341Z,11.80
2018-06-02T19:31:19.593Z,11.97
2018-06-02T19:33:47.842Z,12.07
2018-06-02T19:36:16.057Z,11.87
2018-06-02T19:38:44.363Z,13.57
2018-06-02T19:41:12.597Z,14.50
2018-06-02T19:43:41.067Z,15.37
2018-06-02T19:46:09.425Z,17.27
2018-06-02T19:48:37.612Z,16.23
2018-06-02T19:51:05.921Z,15.13
2018-06-02T19:53:34.109Z,15.87
2018-06-02T19:56:02.431Z,17.60
2018-06-02T19:58:30.709Z,20.83
2018-06-02T20:00:58.889Z,18.47
2018-06-02T20:03:27.101Z,18.37
2018-06-02T20:05:55.411Z,17.70
2018-06-02T20:08:23.609Z,19.97
2018-06-02T20:10:51.953Z,17.87
2018-06-02T20:13:20.149Z,21.10
2018-06-02T20:15:48.497Z,47.17
2018-06-02T20:18:16.694Z,38.00
2018-06-02T20:20:44.881Z,27.90
2018-06-02T20:23:13.141Z,27.00
2018-06-02T20:25:41.448Z,26.47
2018-06-02T20:28:09.676Z,29.13
2018-06-02T20:30:37.868Z,35.60
2018-06-02T20:33:06.159Z,33.47
2018-06-02T20:35:34.354Z,30.97
2018-06-02T20:38:02.582Z,28.30
2018-06-02T20:40:30.825Z,21.30
2018-06-02T20:42:59.092Z,18.97
2018-06-02T20:45:27.276Z,18.77
2018-06-02T20:47:55.508Z,17.53
2018-06-02T20:50:23.702Z,17.50
2018-06-02T20:52:51.928Z,18.53
2018-06-02T20:55:20.109Z,17.87
2018-06-02T20:57:48.410Z,18.47
2018-06-02T21:00:16.634Z,20.40
2018-06-02T21:02:44.871Z,18.13
2018-06-02T21:05:13.103Z,17.23
2018-06-02T21:07:41.340Z,19.30
2018-06-02T21:10:09.591Z,20.37
2018-06-02T21:12:37.786Z,17.40
2018-06-02T21:15:06.317Z,15.70
2018-06-02T21:17:34.570Z,15.83
2018-06-02T21:20:02.770Z,16.77
2018-06-02T21:22:30.998Z,16.17
2018-06-02T21:24:59.182Z,18.07
2018-06-02T21:27:27.389Z,16.40
2018-06-02T21:29:55.614Z,16.43
2018-06-02T21:32:23.802Z,16.80
2018-06-02T21:34:52.008Z,17.30
2018-06-02T21:37:20.206Z,18.13
2018-06-02T21:39:48.403Z,17.00
2018-06-02T21:42:17.029Z,16.40
2018-06-02T21:44:45.234Z,15.70
2018-06-02T21:47:13.430Z,16.33
2018-06-02T21:49:41.639Z,18.37
2018-06-02T21:52:09.870Z,15.07
2018-06-02T21:54:38.133Z,17.27
2018-06-02T21:57:06.356Z,16.77
2018-06-02T21:59:34.610Z,17.40
2018-06-02T22:02:02.904Z,15.63
2018-06-02T22:04:31.163Z,15.73
2018-06-02T22:06:59.993Z,16.63
2018-06-02T22:09:28.291Z,15.83
2018-06-02T22:11:56.711Z,16.67
2018-06-02T22:14:24.974Z,18.93
2018-06-02T22:16:53.234Z,18.27
2018-06-02T22:19:21.493Z,20.60
2018-06-02T22:21:49.795Z,22.07
2018-06-02T22:24:18.038Z,24.50
2018-06-02T22:26:46.500Z,22.63
2018-06-02T22:29:14.823Z,27.77
2018-06-02T22:31:43.072Z,25.27
2018-06-02T22:34:11.365Z,28.87
2018-06-02T22:36:39.643Z,28.33
2018-06-02T22:39:07.890Z,32.50
2018-06-02T22:41:36.138Z,31.63
2018-06-02T22:44:04.389Z,34.93
2018-06-02T22:46:32.663Z,32.97
2018-06-02T22:49:00.936Z,34.57
2018-06-02T22:51:34.853Z,30.20
2018-06-02T22:54:03.144Z,34.17
2018-06-02T22:56:33.496Z,40.17
2018-06-02T22:59:01.759Z,35.77
2018-06-02T23:01:30.031Z,35.00
2018-06-02T23:03:58.367Z,40.30
2018-06-02T23:06:26.661Z,36.77
2018-06-02T23:08:55.005Z,36.07
2018-06-02T23:11:23.253Z,36.60
2018-06-02T23:13:51.506Z,42.43
2018-06-02T23:16:19.819Z,37.30
2018-06-02T23:18:48.049Z,39.70
2018-06-02T23:21:16.287Z,37.53
2018-06-02T23:23:44.552Z,34.97
2018-06-02T23:26:12.776Z,36.23
2018-06-02T23:28:41.155Z,34.63
2018-06-02T23:31:09.378Z,38.73
2018-06-02T23:33:39.235Z,38.73
2018-06-02T23:36:07.464Z,36.63
2018-06-02T23:38:35.706Z,44.83
2018-06-02T23:41:04.023Z,40.13
2018-06-02T23:43:32.284Z,35.17
2018-06-02T23:46:00.512Z,40.20
2018-06-02T23:48:28.744Z,40.07
2018-06-02T23:50:56.975Z,41.13
2018-06-02T23:53:25.259Z,37.47
2018-06-02T23:55:53.513Z,39.00
2018-06-02T23:58:21.753Z,38.17
